61NY weather

Bassett Field
Lockport, New York, United States

Public forecast

Using degrees Fahrenheit for public forecast. Weather courtesy of forecast.io.

METAR (pilot weather report)

Closest report is Niagara Falls International Airport, 8.1 nm (14.9 km) WSW. Retrieved 2019/06/25 08:53 UTC (60 minutes ago):

KIAG 250853Z AUTO 22009KT 10SM FEW048 BKN080 19/18 A2970 RMK AO2 SLP051 60010 T01940183 53013

TAF (pilot weather forecast)

Closest forecast is Niagara Falls International Airport, 8.1 nm (14.9 km) WSW. Retrieved 2019/06/25 06:30 UTC (3 hours ago):

TAF KIAG 250527Z 2506/2606 19008KT 6SM -RA SCT025 BKN040 TEMPO 2506/2508 BKN015 FM250800 22010KT P6SM VCSH BKN007 FM251100 23010KT P6SM SCT015 BKN025 FM251230 23013KT P6SM BKN080 FM251400 23015G25KT P6SM BKN080 FM252100 24015KT P6SM SCT070 FM260300 21008KT P6SM FEW250